Time;durP1;ratioP1;P1;durP2;ratioP2;P2;SDS_P1;SDS_P2;PMS_P1;PMS_P2;Temp;Humidity;BMP_temperature;BMP_pressure;BME280_temperature;BME280_humidity;BME280_pressure;Samples;Min_cycle;Max_cycle;Signal;HPM_P1;HPM_P2
2022/04/21 00:00:46;;;;;;;10.80;3.47;;;;;;;12.44;51.31;101024.59;5066583;28;20052;-71
2022/04/21 00:03:13;;;;;;;7.30;3.55;;;;;;;12.40;52.81;101021.06;5066443;28;20049;-70
2022/04/21 00:05:40;;;;;;;9.95;3.40;;;;;;;12.35;52.21;101019.50;5070689;28;20052;-71
2022/04/21 00:08:06;;;;;;;6.90;3.50;;;;;;;12.32;52.85;101013.97;5063773;28;20151;-70
2022/04/21 00:10:33;;;;;;;9.02;3.58;;;;;;;12.28;53.46;101007.59;5067558;28;20048;-70
2022/04/21 00:13:00;;;;;;;9.85;4.05;;;;;;;12.22;53.49;101004.47;5061290;28;20059;-70
2022/04/21 00:15:27;;;;;;;7.78;3.63;;;;;;;12.17;54.51;101010.44;5067174;28;20074;-70
2022/04/21 00:17:54;;;;;;;11.40;4.07;;;;;;;12.10;54.54;101001.34;5070396;28;20135;-70
2022/04/21 00:20:20;;;;;;;10.35;3.83;;;;;;;12.01;56.01;100998.97;5060862;28;20534;-71
2022/04/21 00:25:32;;;;;;;10.93;3.97;;;;;;;11.84;58.90;100999.00;5073658;28;20132;-70
2022/04/21 00:27:59;;;;;;;8.80;4.10;;;;;;;11.79;58.19;100989.13;5063119;28;20090;-70
2022/04/21 00:30:26;;;;;;;9.15;3.50;;;;;;;11.75;57.29;100993.88;5067269;28;20048;-73
2022/04/21 00:32:52;;;;;;;7.50;3.78;;;;;;;11.61;58.43;100987.56;5068231;28;20140;-70
2022/04/21 00:35:23;;;;;;;15.27;3.97;;;;;;;11.54;57.60;100993.88;5073763;28;20447;-70
2022/04/21 00:37:57;;;;;;;17.63;3.92;;;;;;;11.41;59.85;100987.16;5062173;28;20045;-71
2022/04/21 00:40:27;;;;;;;9.15;3.70;;;;;;;11.37;60.11;100989.13;5063489;28;20044;-72
2022/04/21 00:42:54;;;;;;;10.15;3.72;;;;;;;11.36;59.19;100983.97;5066144;28;20171;-70
2022/04/21 00:45:21;;;;;;;10.95;3.80;;;;;;;11.34;59.48;100980.84;5060601;28;20043;-70
2022/04/21 00:47:49;;;;;;;10.23;3.63;;;;;;;11.27;60.75;100972.53;5066244;28;20056;-69
2022/04/21 00:50:30;;;;;;;10.43;3.80;;;;;;;11.23;61.40;100966.97;5058124;28;20076;-70
2022/04/21 00:52:58;;;;;;;13.63;3.88;;;;;;;11.22;61.27;100984.78;5067392;28;20063;-70
2022/04/21 00:55:25;;;;;;;11.70;3.70;;;;;;;11.18;61.27;100978.47;5060844;28;20051;-71
2022/04/21 00:57:53;;;;;;;8.18;3.78;;;;;;;11.16;61.37;100974.47;5065346;28;20057;-70
2022/04/21 01:00:20;;;;;;;8.73;3.67;;;;;;;11.12;61.79;100968.16;5060404;28;20044;-70
2022/04/21 01:02:46;;;;;;;13.00;3.83;;;;;;;11.10;61.50;100976.09;5067072;28;20429;-70
2022/04/21 01:05:14;;;;;;;10.10;3.78;;;;;;;11.06;61.57;100975.25;5067239;28;20048;-71
2022/04/21 01:07:41;;;;;;;8.52;3.97;;;;;;;11.02;61.53;100975.28;5062695;28;20055;-71
2022/04/21 01:10:10;;;;;;;8.45;3.38;;;;;;;11.00;61.37;100979.63;5062011;28;20059;-71
2022/04/21 01:12:38;;;;;;;12.55;4.15;;;;;;;10.93;63.62;100983.16;5062797;28;20058;-71
2022/04/21 01:15:05;;;;;;;7.13;3.65;;;;;;;10.93;64.01;100979.63;5071349;28;20148;-71
2022/04/21 01:17:37;;;;;;;11.10;3.85;;;;;;;10.88;63.50;100972.50;5069161;28;20052;-70
2022/04/21 01:20:06;;;;;;;10.48;4.03;;;;;;;10.84;64.54;100977.22;5079053;28;20044;-71
2022/04/21 01:22:33;;;;;;;10.65;4.22;;;;;;;10.81;63.65;100971.69;5073329;28;20126;-71
2022/04/21 01:25:00;;;;;;;10.48;4.20;;;;;;;10.72;63.78;100966.53;5071769;28;20616;-71
2022/04/21 01:27:31;;;;;;;9.27;3.85;;;;;;;10.57;65.07;100975.19;5076222;28;20044;-72
2022/04/21 01:29:58;;;;;;;9.48;4.07;;;;;;;10.56;67.06;100982.66;5058446;28;20167;-72
2022/04/21 01:32:24;;;;;;;13.35;4.22;;;;;;;10.57;65.55;100989.00;5070134;28;20048;-70
2022/04/21 01:34:51;;;;;;;10.25;4.03;;;;;;;10.48;66.21;100981.88;5080573;28;20136;-71
2022/04/21 01:42:48;;;;;;;9.07;3.92;;;;;;;10.26;66.48;100966.38;5075490;28;20475;-70
2022/04/21 01:45:16;;;;;;;9.27;3.72;;;;;;;10.26;65.12;100971.13;5077715;28;20054;-72
2022/04/21 01:47:42;;;;;;;10.50;4.40;;;;;;;10.31;65.78;100970.75;5070460;28;20812;-70
2022/04/21 01:50:09;;;;;;;9.02;4.63;;;;;;;10.31;64.86;100968.78;5067875;28;20052;-71
2022/04/21 01:52:36;;;;;;;14.32;4.32;;;;;;;10.33;65.38;100960.88;5057913;28;20416;-72
2022/04/21 01:55:05;;;;;;;15.40;4.70;;;;;;;10.32;65.58;100961.25;5067170;28;20091;-70
2022/04/21 01:57:31;;;;;;;11.40;4.38;;;;;;;10.23;65.37;100950.56;5070320;28;20501;-69
2022/04/21 01:59:58;;;;;;;9.10;4.15;;;;;;;10.24;65.09;100954.13;5064655;28;20468;-69
2022/04/21 02:02:24;;;;;;;10.63;4.43;;;;;;;10.28;64.12;100955.72;5057191;28;20044;-71
2022/04/21 02:04:51;;;;;;;13.57;4.45;;;;;;;10.30;64.93;100950.56;5063943;28;20052;-70
2022/04/21 02:07:17;;;;;;;11.77;4.30;;;;;;;10.33;66.07;100952.56;5069026;28;20052;-70
2022/04/21 02:09:44;;;;;;;9.18;4.05;;;;;;;10.34;66.23;100947.84;5069700;28;20662;-70
2022/04/21 02:12:11;;;;;;;10.38;4.75;;;;;;;10.33;66.06;100949.03;5060093;28;20136;-71
2022/04/21 02:14:37;;;;;;;12.18;4.38;;;;;;;10.33;65.68;100952.56;5048861;28;20456;-71
2022/04/21 02:17:07;;;;;;;12.98;4.78;;;;;;;10.29;67.16;100942.66;5061208;28;20127;-71
2022/04/21 02:19:34;;;;;;;13.82;4.65;;;;;;;10.26;67.02;100937.94;5067557;28;20139;-70
2022/04/21 02:22:01;;;;;;;12.45;4.53;;;;;;;10.19;67.20;100944.22;5063591;28;20052;-71
2022/04/21 02:24:27;;;;;;;10.65;4.18;;;;;;;10.19;69.60;100948.94;5069080;28;20114;-71
2022/04/21 02:26:54;;;;;;;9.32;4.10;;;;;;;10.18;68.95;100937.13;5069890;28;20079;-70
2022/04/21 02:29:21;;;;;;;13.38;4.75;;;;;;;10.10;68.45;100941.00;5070121;28;20105;-71
2022/04/21 02:31:48;;;;;;;12.27;4.57;;;;;;;10.03;69.45;100938.19;5072286;28;20519;-71
2022/04/21 02:34:14;;;;;;;15.40;4.82;;;;;;;10.02;69.93;100939.38;5072030;28;20055;-71
2022/04/21 02:36:41;;;;;;;15.77;4.50;;;;;;;10.01;68.61;100939.75;5065328;28;20048;-71
2022/04/21 02:39:07;;;;;;;13.90;4.68;;;;;;;9.95;68.61;100938.53;5070663;28;20080;-72
2022/04/21 02:41:34;;;;;;;13.77;4.50;;;;;;;9.88;68.39;100935.75;5068754;28;20050;-73
2022/04/21 02:44:01;;;;;;;13.07;5.32;;;;;;;9.82;68.50;100940.06;5071247;28;20041;-71
2022/04/21 02:46:30;;;;;;;14.02;4.50;;;;;;;9.75;69.85;100943.56;5068125;28;20052;-70
2022/04/21 02:49:00;;;;;;;11.52;4.15;;;;;;;9.72;69.59;100936.06;5071795;28;20102;-70
2022/04/21 02:51:30;;;;;;;10.65;4.55;;;;;;;9.71;69.74;100939.19;5068128;28;20051;-70
2022/04/21 02:59:29;;;;;;;10.68;4.35;;;;;;;9.53;69.66;100939.13;5070871;28;20076;-71
2022/04/21 03:01:57;;;;;;;10.90;4.82;;;;;;;9.49;72.04;100932.75;5070823;28;20363;-70
2022/04/21 03:04:24;;;;;;;13.43;4.57;;;;;;;9.46;71.42;100938.25;5071786;28;20044;-70
2022/04/21 03:06:50;;;;;;;12.30;4.95;;;;;;;9.46;71.95;100941.81;5068680;28;20053;-72
2022/04/21 03:09:17;;;;;;;10.85;4.57;;;;;;;9.46;72.04;100932.75;5072541;28;20052;-71
2022/04/21 03:11:43;;;;;;;16.05;4.70;;;;;;;9.45;71.95;100939.44;5069026;28;20045;-71
2022/04/21 03:14:10;;;;;;;10.85;4.82;;;;;;;9.41;71.90;100936.66;5069467;28;20085;-71
2022/04/21 03:16:36;;;;;;;17.48;4.88;;;;;;;9.37;72.51;100938.59;5066150;28;20139;-70
2022/04/21 03:19:02;;;;;;;10.00;4.60;;;;;;;9.32;72.54;100940.94;5070704;28;20051;-74
2022/04/21 03:24:20;;;;;;;10.35;4.82;;;;;;;9.31;74.89;100944.84;5070973;28;20135;-71
2022/04/21 03:26:47;;;;;;;13.45;4.75;;;;;;;9.28;74.23;100940.88;5068984;28;20055;-71
2022/04/21 03:29:14;;;;;;;13.02;4.90;;;;;;;9.22;74.74;100936.13;5069452;28;20053;-71
2022/04/21 03:31:43;;;;;;;14.27;4.72;;;;;;;9.15;74.37;100933.31;5075309;28;20052;-73
2022/04/21 03:34:13;;;;;;;14.15;5.32;;;;;;;9.07;75.58;100920.59;5070598;28;20131;-72
2022/04/21 03:36:47;;;;;;;11.77;4.93;;;;;;;9.08;74.98;100938.75;5067080;28;20062;-72
2022/04/21 03:39:21;;;;;;;11.65;4.55;;;;;;;9.08;75.66;100938.75;5064561;28;20059;-70
2022/04/21 03:41:53;;;;;;;9.20;4.47;;;;;;;9.06;75.66;100946.63;5068497;28;20049;-71
2022/04/21 03:44:21;;;;;;;11.20;4.75;;;;;;;8.99;75.26;100939.09;5069422;28;20085;-71
2022/04/21 03:46:48;;;;;;;12.85;4.75;;;;;;;8.96;75.46;100939.84;5070200;28;20063;-70
2022/04/21 03:49:15;;;;;;;16.73;4.90;;;;;;;8.93;75.61;100937.84;5070702;28;20146;-70
2022/04/21 03:51:42;;;;;;;11.27;5.07;;;;;;;8.91;74.35;100934.66;5062850;28;20135;-71
2022/04/21 03:54:08;;;;;;;9.32;4.25;;;;;;;8.85;74.98;100938.97;5061227;28;20052;-71
2022/04/21 03:56:35;;;;;;;10.23;4.78;;;;;;;8.81;74.75;100934.59;5065480;28;20060;-70
2022/04/21 03:59:01;;;;;;;12.57;4.90;;;;;;;8.77;74.81;100934.53;5071939;28;20075;-71
2022/04/21 04:01:28;;;;;;;14.80;5.07;;;;;;;8.75;76.25;100930.56;5071143;28;20057;-72
2022/04/21 04:03:54;;;;;;;12.23;5.40;;;;;;;8.74;76.39;100929.78;5070997;28;20143;-71
2022/04/21 04:11:51;;;;;;;12.70;5.10;;;;;;;8.66;77.97;100944.69;5060980;28;20052;-73
2022/04/21 04:14:17;;;;;;;14.25;5.20;;;;;;;8.62;77.58;100930.06;5071218;28;20055;-70
2022/04/21 04:16:44;;;;;;;12.65;5.78;;;;;;;8.64;79.35;100949.75;5069179;28;20044;-72
2022/04/21 04:19:11;;;;;;;13.95;4.95;;;;;;;8.60;78.48;100943.44;5072405;28;20051;-72
2022/04/21 04:21:38;;;;;;;10.90;4.97;;;;;;;8.57;79.63;100944.19;5072759;28;20071;-70
2022/04/21 04:24:05;;;;;;;15.43;5.30;;;;;;;8.53;79.37;100942.53;5070157;28;20051;-71
2022/04/21 04:26:32;;;;;;;13.48;4.88;;;;;;;8.50;79.31;100949.63;5070832;28;20122;-71
2022/04/21 04:29:00;;;;;;;13.43;5.07;;;;;;;8.49;79.41;100950.00;5073756;28;20055;-71
2022/04/21 04:31:26;;;;;;;12.02;5.45;;;;;;;8.50;79.93;100943.34;5070126;28;20048;-70
2022/04/21 04:33:53;;;;;;;11.88;5.00;;;;;;;8.49;79.30;100953.56;5070432;28;20052;-71
2022/04/21 04:36:19;;;;;;;15.27;6.70;;;;;;;8.48;79.56;100943.72;5061682;28;20140;-71
2022/04/21 04:38:48;;;;;;;11.35;5.05;;;;;;;8.51;79.54;100953.19;5071354;28;20131;-71
2022/04/21 04:44:01;;;;;;;13.25;5.75;;;;;;;8.49;79.73;100950.00;5063841;28;20122;-73
2022/04/21 04:46:40;;;;;;;12.20;5.75;;;;;;;8.48;79.38;100953.94;5066998;28;20072;-70
2022/04/21 04:49:08;;;;;;;23.02;7.32;;;;;;;8.44;79.36;100953.09;5068566;28;20060;-71
2022/04/21 04:51:38;;;;;;;14.20;7.22;;;;;;;8.40;79.73;100957.78;5093956;28;20055;-72
2022/04/21 04:54:06;;;;;;;20.75;6.95;;;;;;;8.39;79.86;100954.22;5078271;28;20045;-72
2022/04/21 04:56:34;;;;;;;18.00;7.28;;;;;;;8.40;80.25;100955.03;5068295;28;20108;-71
2022/04/21 04:59:01;;;;;;;16.35;6.43;;;;;;;8.40;81.24;100963.31;5070611;28;20476;-70
2022/04/21 05:01:33;;;;;;;15.90;6.50;;;;;;;8.42;81.25;100955.44;5069797;28;20144;-71
2022/04/21 05:04:20;;;;;;;14.50;6.00;;;;;;;8.44;81.66;100959.41;5088414;28;20069;-71
2022/04/21 05:06:48;;;;;;;13.63;6.40;;;;;;;8.47;81.19;100960.63;5063067;28;20049;-71
2022/04/21 05:09:18;;;;;;;12.98;6.05;;;;;;;8.43;80.36;100963.34;5071188;28;20131;-71
2022/04/21 05:11:47;;;;;;;18.80;7.05;;;;;;;8.45;80.48;100963.75;5069220;28;20044;-72
2022/04/21 05:14:14;;;;;;;14.05;6.70;;;;;;;8.45;81.20;100961.00;5099898;28;20124;-71
2022/04/21 05:16:41;;;;;;;17.85;7.13;;;;;;;8.50;80.86;100960.66;5068127;28;20051;-71
2022/04/21 05:19:08;;;;;;;16.33;6.53;;;;;;;8.58;81.20;100953.25;5069402;28;20044;-72
2022/04/21 05:21:36;;;;;;;13.90;6.32;;;;;;;8.65;81.56;100954.13;5067548;28;20062;-71
2022/04/21 05:24:04;;;;;;;14.30;5.85;;;;;;;8.76;80.79;100952.25;5058336;28;20160;-72
2022/04/21 05:26:32;;;;;;;18.33;7.65;;;;;;;8.84;79.78;100948.41;5089932;28;20091;-71
2022/04/21 05:29:00;;;;;;;18.95;6.65;;;;;;;8.93;80.06;100946.13;5068754;28;20052;-72
2022/04/21 05:31:27;;;;;;;14.02;5.95;;;;;;;9.07;80.92;100946.25;5068748;28;20448;-75
2022/04/21 05:33:54;;;;;;;12.02;5.88;;;;;;;9.16;80.66;100943.97;5072057;28;20052;-73
2022/04/21 05:36:21;;;;;;;12.52;5.95;;;;;;;9.23;80.10;100932.16;5059676;28;20063;-74
2022/04/21 05:38:51;;;;;;;12.07;5.55;;;;;;;9.32;80.25;100941.69;5068426;28;20120;-74
2022/04/21 05:41:19;;;;;;;12.13;5.63;;;;;;;9.41;80.02;100942.16;5057445;28;20140;-74
2022/04/21 05:43:47;;;;;;;11.30;5.53;;;;;;;9.46;80.26;100930.78;5071151;28;20048;-75
2022/04/21 05:46:15;;;;;;;12.43;6.00;;;;;;;9.52;79.97;100934.75;5068670;28;20044;-74
2022/04/21 05:48:43;;;;;;;13.13;6.15;;;;;;;9.61;79.61;100940.72;5063986;28;20118;-73
2022/04/21 05:51:11;;;;;;;12.43;5.55;;;;;;;9.65;80.64;100927.72;5060837;28;20135;-74
2022/04/21 05:53:45;;;;;;;15.63;5.70;;;;;;;9.74;79.77;100936.47;5067695;28;20048;-73
2022/04/21 05:56:12;;;;;;;14.75;5.97;;;;;;;9.82;80.24;100923.50;5071431;28;20058;-73
2022/04/21 05:58:39;;;;;;;12.35;5.72;;;;;;;9.88;79.94;100927.44;5074871;28;20064;-74
2022/04/21 06:01:10;;;;;;;13.43;5.22;;;;;;;9.98;78.99;100923.94;5068382;28;20475;-75
2022/04/21 06:03:38;;;;;;;12.52;5.80;;;;;;;10.06;78.92;100931.91;5066928;28;20128;-75
2022/04/21 06:06:06;;;;;;;12.02;5.28;;;;;;;10.12;79.32;100933.13;5061157;28;20075;-74
2022/04/21 06:08:39;;;;;;;12.02;5.45;;;;;;;10.21;78.65;100927.25;5069832;28;20040;-74
2022/04/21 06:11:05;;;;;;;14.52;5.10;;;;;;;10.28;78.10;100928.06;5066216;28;20050;-75
2022/04/21 06:13:32;;;;;;;10.52;4.72;;;;;;;10.34;78.25;100928.47;5071403;28;20051;-73
2022/04/21 06:15:59;;;;;;;12.02;4.60;;;;;;;10.40;77.79;100919.41;5063901;28;20072;-74
2022/04/21 06:18:26;;;;;;;12.13;5.10;;;;;;;10.46;77.32;100926.13;5064609;28;20040;-75
2022/04/21 06:20:54;;;;;;;14.07;5.80;;;;;;;10.52;76.81;100921.00;5065811;28;20071;-74
2022/04/21 06:23:21;;;;;;;8.63;3.80;;;;;;;10.54;77.06;100926.94;5067269;28;20072;-73
2022/04/21 06:25:48;;;;;;;9.40;4.68;;;;;;;10.63;76.72;100926.56;5061470;28;20060;-74
2022/04/21 06:28:15;;;;;;;11.55;5.25;;;;;;;10.67;76.00;100924.59;5070193;28;20500;-74
2022/04/21 06:30:42;;;;;;;12.90;5.65;;;;;;;10.71;76.15;100917.09;5065007;28;20554;-74
2022/04/21 06:33:15;;;;;;;14.57;5.00;;;;;;;10.74;75.85;100922.66;5053301;28;20049;-74
2022/04/21 06:35:41;;;;;;;14.15;5.63;;;;;;;10.80;75.67;100923.81;5067242;28;20052;-73
2022/04/21 06:38:08;;;;;;;13.52;5.53;;;;;;;10.87;75.33;100925.81;5063719;28;20090;-74
2022/04/21 06:40:34;;;;;;;13.15;5.35;;;;;;;10.90;75.36;100919.50;5064925;28;20514;-74
2022/04/21 06:43:03;;;;;;;14.68;6.40;;;;;;;11.00;74.50;100922.25;5056177;28;20058;-74
2022/04/21 06:48:21;;;;;;;13.38;5.45;;;;;;;11.12;73.10;100916.34;5063687;28;20135;-74
2022/04/21 06:50:49;;;;;;;16.67;5.72;;;;;;;11.17;72.71;100915.94;5073464;28;20052;-75
2022/04/21 06:53:16;;;;;;;11.75;5.35;;;;;;;11.20;72.05;100920.69;5061283;28;20136;-75
2022/04/21 06:55:42;;;;;;;13.63;5.05;;;;;;;11.27;71.77;100922.66;5066821;28;20124;-74
2022/04/21 06:58:09;;;;;;;10.57;5.03;;;;;;;11.38;71.34;100920.66;5059419;28;20048;-75
2022/04/21 07:00:35;;;;;;;11.18;4.97;;;;;;;11.47;71.14;100924.59;5068856;28;20699;-75
2022/04/21 07:03:02;;;;;;;11.38;5.22;;;;;;;11.55;71.22;100925.41;5068475;28;20127;-74
2022/04/21 07:05:29;;;;;;;13.77;5.40;;;;;;;11.69;71.18;100928.16;5058712;28;20103;-75
2022/04/21 07:07:56;;;;;;;11.93;5.28;;;;;;;11.78;70.41;100918.22;5069823;28;20811;-74
2022/04/21 07:10:23;;;;;;;10.45;4.82;;;;;;;11.91;69.22;100930.47;5066572;28;20654;-74
2022/04/21 07:12:50;;;;;;;11.27;5.28;;;;;;;12.02;68.60;100933.22;5068440;28;20921;-73
2022/04/21 07:15:17;;;;;;;13.20;5.85;;;;;;;12.08;67.99;100926.06;5071550;28;20075;-74
2022/04/21 07:17:44;;;;;;;13.25;5.80;;;;;;;12.18;67.26;100925.22;5070450;28;20087;-74
2022/04/21 07:20:12;;;;;;;14.90;4.95;;;;;;;12.31;66.64;100934.66;5058597;28;20051;-74
2022/04/21 07:22:39;;;;;;;11.52;4.80;;;;;;;12.41;66.28;100922.72;5052822;28;20063;-74
2022/04/21 07:25:09;;;;;;;6.72;2.53;;;;;;;12.48;64.31;100933.78;5070728;28;20492;-75
2022/04/21 07:27:37;;;;;;;11.75;5.13;;;;;;;12.47;62.72;100937.78;5071212;28;20051;-72
2022/04/21 07:30:06;;;;;;;10.38;4.75;;;;;;;12.62;62.75;100936.47;5071313;28;20146;-74
2022/04/21 07:32:32;;;;;;;14.40;5.43;;;;;;;12.65;62.24;100930.94;5072346;28;20048;-73
2022/04/21 07:35:00;;;;;;;12.25;4.40;;;;;;;12.80;62.36;100934.41;5062209;28;20051;-73
2022/04/21 07:37:28;;;;;;;13.90;5.57;;;;;;;12.94;61.89;100939.84;5071505;28;20044;-75
2022/04/21 07:39:55;;;;;;;11.70;4.70;;;;;;;13.00;61.04;100938.25;5069991;28;20052;-73
2022/04/21 07:42:22;;;;;;;11.05;4.63;;;;;;;13.11;60.52;100943.72;5069687;28;20045;-72
2022/04/21 07:44:49;;;;;;;11.05;4.93;;;;;;;13.19;61.57;100936.94;5098070;28;20111;-71
2022/04/21 07:47:16;;;;;;;11.13;5.10;;;;;;;13.25;61.44;100938.03;5065851;28;20048;-73
2022/04/21 07:49:45;;;;;;;12.02;4.45;;;;;;;13.34;60.05;100932.81;5064926;28;20049;-75
2022/04/21 07:55:14;;;;;;;10.45;4.68;;;;;;;13.56;57.57;100931.44;5067071;28;20044;-74
2022/04/21 07:57:41;;;;;;;9.25;4.85;;;;;;;13.55;57.04;100929.84;5069951;28;20163;-73
2022/04/21 08:00:09;;;;;;;11.00;4.35;;;;;;;13.54;54.86;100929.06;5067196;28;20159;-75
2022/04/21 08:02:41;;;;;;;8.35;3.78;;;;;;;13.58;54.10;100934.56;5058376;28;20146;-74
2022/04/21 08:05:10;;;;;;;12.25;4.50;;;;;;;13.63;54.20;100921.00;5075404;28;20036;-73
2022/04/21 08:07:37;;;;;;;9.85;3.72;;;;;;;13.69;53.72;100929.69;5064340;28;20058;-75
2022/04/21 08:10:06;;;;;;;16.45;5.43;;;;;;;13.79;53.96;100924.03;5061160;28;20084;-74
2022/04/21 08:12:43;;;;;;;11.27;4.18;;;;;;;13.90;54.69;100918.34;5073408;28;20068;-72
2022/04/21 08:15:30;;;;;;;9.02;3.45;;;;;;;13.97;54.29;100924.59;5069701;28;20229;-73
2022/04/21 08:18:00;;;;;;;10.30;3.88;;;;;;;14.04;53.16;100918.94;5069886;28;20459;-73
2022/04/21 08:20:28;;;;;;;8.73;3.58;;;;;;;14.17;52.82;100925.56;5057316;28;20052;-74
2022/04/21 08:22:55;;;;;;;8.27;3.60;;;;;;;14.27;52.30;100923.88;5099617;28;20092;-73
2022/04/21 08:34:17;;;;;;;6.40;3.40;;;;;;;14.43;50.99;100922.06;5072459;28;20044;-73
2022/04/21 08:36:57;;;;;;;10.35;4.35;;;;;;;14.46;50.98;100924.03;5069101;28;20053;-73
2022/04/21 08:39:24;;;;;;;10.25;3.20;;;;;;;14.45;50.49;100933.56;5065233;28;20076;-74
2022/04/21 08:41:57;;;;;;;7.57;3.25;;;;;;;14.47;50.47;100933.13;5063615;28;20091;-69
2022/04/21 08:44:27;;;;;;;12.57;4.60;;;;;;;14.62;52.20;100926.97;5069183;28;20131;-71
2022/04/21 08:46:57;;;;;;;7.68;4.20;;;;;;;14.76;51.28;100923.19;5069623;28;20045;-73
2022/04/21 08:49:25;;;;;;;8.27;3.78;;;;;;;14.86;51.30;100913.88;5065540;28;20052;-74
2022/04/21 08:51:52;;;;;;;8.90;4.05;;;;;;;15.05;51.09;100915.97;5068885;28;20131;-76
2022/04/21 08:54:19;;;;;;;8.27;3.67;;;;;;;15.12;50.35;100915.88;5067978;28;20485;-75
2022/04/21 08:56:47;;;;;;;8.95;3.40;;;;;;;15.09;49.05;100906.34;5072535;28;20054;-74
2022/04/21 08:59:15;;;;;;;10.38;4.10;;;;;;;15.17;49.48;100905.03;5065234;28;20095;-74
2022/04/21 09:01:41;;;;;;;11.55;3.83;;;;;;;15.29;49.42;100904.41;5069316;28;20128;-72
2022/04/21 09:04:08;;;;;;;13.88;4.45;;;;;;;15.43;49.21;100904.19;5062436;28;20049;-75
2022/04/21 09:06:38;;;;;;;6.25;2.63;;;;;;;15.52;48.55;100896.06;5064387;28;20132;-74
2022/04/21 09:09:21;;;;;;;8.85;3.78;;;;;;;15.57;46.43;100905.13;5072176;28;20140;-74
2022/04/21 09:11:56;;;;;;;10.82;3.30;;;;;;;15.72;47.26;100903.69;5068333;28;20055;-73
2022/04/21 09:14:22;;;;;;;8.38;3.70;;;;;;;15.83;47.49;100898.66;5069092;28;20609;-72
2022/04/21 09:16:49;;;;;;;10.63;3.75;;;;;;;15.84;47.49;100894.66;5066482;28;20048;-75
2022/04/21 09:19:16;;;;;;;9.50;3.97;;;;;;;15.96;47.07;100899.59;5067017;28;20055;-73
2022/04/21 09:21:43;;;;;;;10.77;3.95;;;;;;;16.05;47.40;100906.19;5068992;28;20474;-75
2022/04/21 09:24:26;;;;;;;10.05;3.25;;;;;;;16.13;46.15;100895.66;5071794;28;20159;-74
2022/04/21 09:26:55;;;;;;;10.52;4.65;;;;;;;16.22;46.18;100895.84;5058083;28;20079;-73
2022/04/21 09:29:31;;;;;;;10.73;3.38;;;;;;;16.19;44.84;100899.50;5064508;28;20080;-75
2022/04/21 09:32:04;;;;;;;9.77;3.55;;;;;;;16.27;45.68;100903.75;5090557;28;20048;-72
2022/04/21 09:34:35;;;;;;;9.32;3.40;;;;;;;16.26;44.88;100897.34;5075127;28;20047;-75
2022/04/21 09:37:10;;;;;;;4.55;1.83;;;;;;;16.30;43.79;100894.50;5071179;28;20053;-74
2022/04/21 09:39:40;;;;;;;5.07;1.98;;;;;;;16.18;43.47;100893.16;5067722;28;20052;-73
2022/04/21 09:42:07;;;;;;;10.18;4.32;;;;;;;16.22;44.10;100893.84;5055561;28;20821;-73
2022/04/21 09:47:27;;;;;;;8.88;4.10;;;;;;;16.23;43.98;100895.44;5062987;28;20132;-73
2022/04/21 09:49:53;;;;;;;9.32;3.90;;;;;;;16.25;44.38;100895.78;5064188;28;20526;-75
2022/04/21 09:52:31;;;;;;;10.13;4.05;;;;;;;16.41;44.07;100895.84;5061708;28;20057;-74
2022/04/21 09:54:57;;;;;;;8.23;3.25;;;;;;;16.54;44.14;100893.97;5068068;28;20047;-74
2022/04/21 09:57:31;;;;;;;5.43;2.85;;;;;;;16.61;43.77;100890.25;5067137;28;20056;-74
2022/04/21 09:59:59;;;;;;;10.73;3.30;;;;;;;16.52;43.12;100898.41;5067967;28;20147;-74
2022/04/21 10:02:27;;;;;;;9.40;3.97;;;;;;;16.48;43.96;100895.72;5067661;28;20164;-74
2022/04/21 10:04:54;;;;;;;8.55;4.20;;;;;;;16.48;43.66;100884.53;5067298;28;20450;-73
2022/04/21 10:07:22;;;;;;;3.13;1.83;;;;;;;16.45;43.14;100895.78;5067148;28;20072;-74
2022/04/21 10:09:50;;;;;;;10.48;3.65;;;;;;;16.56;43.66;100887.94;5068764;28;20048;-73
2022/04/21 10:12:17;;;;;;;8.05;3.63;;;;;;;16.56;43.51;100877.56;5067569;28;20099;-73
2022/04/21 10:14:44;;;;;;;11.23;4.03;;;;;;;16.59;43.04;100875.91;5070330;28;20044;-73
2022/04/21 10:17:12;;;;;;;8.05;3.75;;;;;;;16.63;42.62;100876.59;5068218;28;20048;-75
2022/04/21 10:19:38;;;;;;;8.02;3.30;;;;;;;16.58;42.51;100871.56;5067936;28;20048;-74
2022/04/21 10:22:13;;;;;;;8.48;3.75;;;;;;;16.55;42.74;100870.41;5052845;28;20052;-73
2022/04/21 10:24:41;;;;;;;8.63;3.50;;;;;;;16.55;42.86;100859.25;5053838;28;20132;-73
2022/04/21 10:27:34;;;;;;;9.00;3.85;;;;;;;16.55;42.95;100866.81;5054380;28;20044;-75
2022/04/21 10:30:01;;;;;;;13.40;4.90;;;;;;;16.59;43.21;100848.78;5062995;28;20063;-74
2022/04/21 10:32:45;;;;;;;12.07;4.15;;;;;;;16.72;43.38;100855.25;5066946;28;20051;-74
2022/04/21 10:35:26;;;;;;;10.98;4.45;;;;;;;16.90;43.47;100850.00;5086387;28;20140;-73
2022/04/21 10:38:25;;;;;;;9.48;3.95;;;;;;;17.11;43.34;100846.66;5063686;28;20060;-74
2022/04/21 10:41:03;;;;;;;7.93;3.88;;;;;;;17.23;42.86;100828.38;5048401;28;20141;-73
2022/04/21 10:43:48;;;;;;;5.30;2.42;;;;;;;17.40;42.21;100833.50;5063696;28;20048;-72
2022/04/21 10:46:29;;;;;;;8.85;4.03;;;;;;;17.66;42.03;100840.03;5068706;28;20044;-73
2022/04/21 10:48:56;;;;;;;9.10;4.00;;;;;;;17.78;41.63;100828.88;5066235;28;20068;-74
2022/04/21 10:51:41;;;;;;;11.13;4.50;;;;;;;17.82;40.87;100820.38;5065513;28;20064;-75
2022/04/21 11:00:05;;;;;;;10.82;4.60;;;;;;;17.91;40.95;100823.31;5068423;28;20082;-73
2022/04/21 11:02:44;;;;;;;9.73;3.83;;;;;;;17.86;40.68;100818.25;5071195;28;20048;-72
2022/04/21 11:05:23;;;;;;;10.40;3.97;;;;;;;17.96;41.07;100825.56;5069065;28;20500;-73
2022/04/21 11:07:51;;;;;;;8.70;3.83;;;;;;;18.01;40.82;100811.00;5072742;28;20818;-76
2022/04/21 11:10:27;;;;;;;11.02;3.80;;;;;;;18.23;40.83;100808.34;5069456;28;20048;-73
2022/04/21 11:12:53;;;;;;;7.35;3.30;;;;;;;18.37;40.44;100819.13;5057652;28;20132;-72
2022/04/21 11:15:32;;;;;;;7.25;3.22;;;;;;;18.39;39.23;100819.47;5062168;28;20120;-76
2022/04/21 11:18:01;;;;;;;8.20;3.28;;;;;;;18.63;39.83;100807.47;5065385;28;20052;-74
2022/04/21 11:20:28;;;;;;;7.88;2.97;;;;;;;18.84;39.20;100818.00;5064858;28;20071;-73
2022/04/21 11:22:54;;;;;;;6.78;3.00;;;;;;;18.96;38.44;100814.38;5067988;28;20087;-74
2022/04/21 11:25:21;;;;;;;17.85;3.53;;;;;;;19.19;39.07;100811.16;5057956;28;20076;-72
2022/04/21 11:27:48;;;;;;;10.15;3.50;;;;;;;19.24;38.10;100812.63;5069605;28;20146;-74
2022/04/21 11:30:15;;;;;;;9.05;3.40;;;;;;;19.10;37.37;100804.69;5066973;28;20118;-76
2022/04/21 11:32:51;;;;;;;5.57;2.40;;;;;;;18.93;37.73;100806.09;5064467;28;20059;-76
2022/04/21 11:35:21;;;;;;;6.15;3.13;;;;;;;18.85;38.29;100811.16;5067050;28;20135;-75
2022/04/21 11:37:58;;;;;;;8.45;3.30;;;;;;;18.82;37.96;100805.66;5068859;28;20390;-74
2022/04/21 11:40:35;;;;;;;9.35;2.53;;;;;;;19.01;38.14;100804.59;5068575;28;20061;-75
2022/04/21 11:43:12;;;;;;;8.43;3.33;;;;;;;19.15;37.99;100813.31;5063095;28;20049;-74
2022/04/21 11:45:40;;;;;;;7.78;3.35;;;;;;;19.56;37.56;100815.09;5059437;28;20385;-74
2022/04/21 11:48:12;;;;;;;6.90;3.10;;;;;;;19.87;36.70;100801.91;5063455;28;20072;-74
2022/04/21 11:50:44;;;;;;;9.13;3.97;;;;;;;20.16;36.61;100808.03;5060613;28;20044;-73
2022/04/21 11:53:17;;;;;;;7.13;3.47;;;;;;;20.41;36.59;100805.03;5068428;28;20063;-74
2022/04/21 11:55:44;;;;;;;9.07;3.45;;;;;;;20.50;36.50;100807.88;5066982;28;20044;-72
2022/04/21 11:58:12;;;;;;;6.25;2.15;;;;;;;20.51;35.86;100800.22;5058349;28;20068;-75
2022/04/21 12:06:28;;;;;;;4.70;2.55;;;;;;;20.30;36.81;100793.44;5063750;28;20055;-74
2022/04/21 12:08:56;;;;;;;3.88;1.63;;;;;;;20.29;36.82;100794.69;5064181;28;20136;-74
2022/04/21 12:11:23;;;;;;;7.00;3.03;;;;;;;20.17;37.10;100790.72;5072759;28;20044;-75
2022/04/21 12:13:49;;;;;;;7.35;3.42;;;;;;;20.26;37.22;100787.16;5064198;28;20049;-74
2022/04/21 12:16:36;;;;;;;9.15;3.90;;;;;;;20.20;36.80;100794.63;5070978;28;20496;-74
2022/04/21 12:19:16;;;;;;;9.48;3.95;;;;;;;20.21;37.36;100782.94;5069943;28;20076;-76
2022/04/21 12:21:44;;;;;;;8.80;4.10;;;;;;;20.32;37.61;100780.47;5068690;28;20067;-74
2022/04/21 12:24:17;;;;;;;9.45;3.67;;;;;;;20.39;36.98;100779.41;5071949;28;20053;-75